Time;durP1;ratioP1;P1;durP2;ratioP2;P2;SDS_P1;SDS_P2;PMS_P1;PMS_P2;Temp;Humidity;BMP_temperature;BMP_pressure;BME280_temperature;BME280_humidity;BME280_pressure;Samples;Min_cycle;Max_cycle;Signal;HPM_P1;HPM_P2
2023/01/11 00:01:52;;;;;;;8.73;3.33;;;5.80;99.90;;;;;;5056218;28;20403;-74
2023/01/11 00:04:27;;;;;;;2.47;2.20;;;5.80;99.90;;;;;;5055047;28;20190;-80
2023/01/11 00:06:52;;;;;;;4.60;3.10;;;5.70;99.90;;;;;;5056257;28;20420;-81
2023/01/11 00:09:18;;;;;;;3.40;2.80;;;5.70;99.90;;;;;;5056111;28;20890;-78
2023/01/11 00:11:45;;;;;;;2.70;2.50;;;5.70;99.90;;;;;;5056039;28;20173;-74
2023/01/11 00:14:11;;;;;;;3.20;2.90;;;5.80;99.90;;;;;;5054185;28;20195;-79
2023/01/11 00:16:36;;;;;;;3.83;2.27;;;5.80;99.90;;;;;;5055024;28;20425;-75
2023/01/11 00:19:03;;;;;;;7.63;2.90;;;5.80;99.90;;;;;;5054538;28;20212;-76
2023/01/11 00:21:30;;;;;;;3.00;2.40;;;5.80;99.90;;;;;;5054668;28;20191;-75
2023/01/11 00:23:57;;;;;;;3.63;3.33;;;5.80;99.90;;;;;;5038320;28;20500;-80
2023/01/11 00:26:24;;;;;;;9.80;3.30;;;5.90;99.90;;;;;;5054864;28;20803;-76
2023/01/11 00:28:51;;;;;;;5.93;2.93;;;5.80;99.90;;;;;;5054756;28;20179;-75
2023/01/11 00:31:17;;;;;;;3.50;3.20;;;5.90;99.90;;;;;;5053875;28;20409;-75
2023/01/11 00:33:42;;;;;;;8.20;2.97;;;5.90;99.90;;;;;;5055666;28;20445;-75
2023/01/11 00:36:08;;;;;;;5.10;2.50;;;5.90;99.90;;;;;;5054699;28;20235;-80
2023/01/11 00:38:45;;;;;;;3.70;3.43;;;6.00;99.90;;;;;;5055456;28;20199;-75
2023/01/11 00:49:28;;;;;;;2.83;2.53;;;6.00;99.90;;;;;;5055158;28;20400;-79
2023/01/11 00:51:54;;;;;;;3.03;2.70;;;6.00;99.90;;;;;;5055347;28;20409;-79
2023/01/11 00:54:20;;;;;;;3.20;3.00;;;6.00;99.90;;;;;;5054265;28;20511;-78
2023/01/11 00:56:45;;;;;;;5.90;2.73;;;6.00;99.90;;;;;;5053951;28;20169;-75
2023/01/11 00:59:11;;;;;;;5.33;3.13;;;6.00;99.90;;;;;;5055105;28;20201;-75
2023/01/11 01:01:37;;;;;;;3.20;3.00;;;6.10;99.90;;;;;;5055138;28;20243;-78
2023/01/11 01:04:03;;;;;;;4.60;4.20;;;6.10;99.90;;;;;;5053711;28;20428;-78
2023/01/11 01:06:29;;;;;;;3.87;2.57;;;6.10;99.90;;;;;;5052552;28;20540;-78
2023/01/11 01:08:55;;;;;;;2.97;2.80;;;6.20;99.90;;;;;;5053673;28;20418;-81
2023/01/11 01:11:21;;;;;;;8.70;2.43;;;6.20;1.00;;;;;;5055077;28;20405;-78
2023/01/11 01:16:32;;;;;;;5.07;3.00;;;6.30;1.00;;;;;;5054302;28;20397;-78
2023/01/11 01:18:58;;;;;;;3.83;3.33;;;6.20;1.00;;;;;;5020318;28;20829;-75
2023/01/11 01:21:25;;;;;;;3.00;2.80;;;6.30;1.00;;;;;;5054725;28;20487;-76
2023/01/11 01:23:52;;;;;;;3.27;2.97;;;6.30;1.00;;;;;;5054241;28;20497;-75
2023/01/11 01:26:17;;;;;;;4.60;2.63;;;6.30;1.00;;;;;;5053755;28;20457;-75
2023/01/11 01:28:43;;;;;;;4.93;2.43;;;6.40;1.00;;;;;;5054750;28;20409;-81
2023/01/11 01:31:09;;;;;;;2.97;2.67;;;6.40;1.00;;;;;;5053138;28;20185;-80
2023/01/11 01:33:35;;;;;;;3.37;3.07;;;6.40;1.00;;;;;;5054558;28;20175;-78
2023/01/11 01:36:01;;;;;;;2.50;2.30;;;6.40;1.00;;;;;;5053598;28;20209;-76
2023/01/11 01:38:27;;;;;;;3.07;2.87;;;6.40;1.00;;;;;;5054172;28;20441;-76
2023/01/11 01:40:55;;;;;;;3.93;2.60;;;6.50;1.00;;;;;;5053542;28;20732;-76
2023/01/11 01:43:23;;;;;;;5.53;2.80;;;6.50;1.00;;;;;;5054422;28;20185;-76
2023/01/11 01:45:51;;;;;;;4.53;4.13;;;6.40;1.00;;;;;;5053415;28;20420;-80
2023/01/11 01:48:23;;;;;;;6.20;3.00;;;6.50;1.00;;;;;;5054268;28;20400;-79
2023/01/11 01:50:55;;;;;;;3.20;2.83;;;6.50;1.00;;;;;;5055223;28;20403;-80
2023/01/11 01:53:24;;;;;;;3.33;3.13;;;6.50;1.00;;;;;;5054212;28;20514;-76
2023/01/11 01:56:00;;;;;;;3.47;3.17;;;6.50;1.00;;;;;;5053196;28;20508;-80
2023/01/11 01:58:40;;;;;;;3.00;2.70;;;6.60;1.00;;;;;;5053639;28;20492;-76
2023/01/11 02:03:52;;;;;;;13.73;3.03;;;6.70;1.00;;;;;;5054139;28;20405;-78
2023/01/11 02:06:20;;;;;;;3.47;3.10;;;6.70;1.00;;;;;;5053136;28;20382;-76
2023/01/11 02:08:55;;;;;;;6.70;2.80;;;6.70;1.00;;;;;;5053892;28;21016;-75
2023/01/11 02:11:31;;;;;;;2.77;2.57;;;6.80;1.00;;;;;;5053734;28;20397;-76
2023/01/11 02:14:06;;;;;;;3.20;3.00;;;6.80;1.00;;;;;;5054172;28;20617;-75
2023/01/11 02:16:32;;;;;;;2.87;2.67;;;6.80;1.00;;;;;;5053180;28;20735;-75
2023/01/11 02:18:59;;;;;;;2.83;2.63;;;6.80;1.00;;;;;;5052871;28;20457;-81
2023/01/11 02:21:31;;;;;;;3.20;3.00;;;6.90;1.00;;;;;;5053699;28;20782;-75
2023/01/11 02:24:20;;;;;;;2.80;2.60;;;6.90;1.00;;;;;;5052177;28;20405;-76
2023/01/11 02:27:13;;;;;;;2.97;2.77;;;7.00;1.00;;;;;;5053800;28;20400;-79
2023/01/11 02:29:50;;;;;;;3.53;2.90;;;7.00;1.00;;;;;;5053470;28;20817;-75
2023/01/11 02:32:29;;;;;;;3.00;2.80;;;7.00;1.00;;;;;;5053428;28;20981;-76
2023/01/11 02:34:55;;;;;;;3.10;2.90;;;7.00;1.00;;;;;;5052497;28;20436;-78
2023/01/11 02:37:55;;;;;;;2.43;2.23;;;7.00;1.00;;;;;;5052695;28;20437;-79
2023/01/11 02:40:28;;;;;;;2.97;2.77;;;7.00;1.00;;;;;;5052716;28;20717;-75
2023/01/11 02:46:00;;;;;;;4.10;3.03;;;7.10;1.00;;;;;;5052356;28;20798;-79
2023/01/11 02:48:56;;;;;;;2.53;2.33;;;7.10;1.00;;;;;;5053009;28;20778;-75
2023/01/11 02:51:47;;;;;;;2.70;2.50;;;7.10;1.00;;;;;;5052090;28;20474;-76
2023/01/11 02:54:17;;;;;;;3.27;3.07;;;7.10;1.00;;;;;;5051384;28;20441;-77
2023/01/11 02:56:46;;;;;;;2.97;2.77;;;7.10;1.00;;;;;;5051274;28;20452;-75
2023/01/11 02:59:17;;;;;;;1.93;1.83;;;7.20;1.00;;;;;;5052920;28;20856;-80
2023/01/11 03:01:45;;;;;;;6.37;3.00;;;7.20;1.00;;;;;;5052932;28;20409;-76
2023/01/11 03:04:47;;;;;;;3.77;2.60;;;7.20;1.00;;;;;;5052763;28;20432;-79
2023/01/11 03:07:43;;;;;;;3.50;3.20;;;7.20;1.00;;;;;;5050821;28;20421;-75
2023/01/11 03:10:18;;;;;;;3.83;3.07;;;7.30;1.00;;;;;;5052997;28;20463;-78
2023/01/11 03:13:03;;;;;;;3.47;3.10;;;7.40;1.00;;;;;;5053027;28;20455;-75
2023/01/11 03:15:49;;;;;;;3.13;2.90;;;7.40;1.00;;;;;;5051367;28;20437;-77
2023/01/11 03:18:39;;;;;;;4.23;3.70;;;7.40;1.00;;;;;;5052846;28;20405;-76
2023/01/11 03:21:40;;;;;;;3.30;3.03;;;7.40;1.00;;;;;;5051636;28;20805;-75
2023/01/11 03:24:22;;;;;;;4.67;3.50;;;7.40;1.00;;;;;;5052558;28;20406;-79
2023/01/11 03:27:06;;;;;;;3.37;3.17;;;7.40;1.00;;;;;;5051634;28;20409;-76
2023/01/11 03:29:40;;;;;;;3.00;2.80;;;7.40;1.00;;;;;;5052793;28;20884;-77
2023/01/11 03:32:15;;;;;;;3.53;3.23;;;7.40;1.00;;;;;;5052350;28;20401;-81
2023/01/11 03:35:16;;;;;;;6.33;3.37;;;7.50;1.00;;;;;;5051821;28;20436;-80
2023/01/11 03:38:05;;;;;;;6.60;3.43;;;7.50;1.00;;;;;;5050457;28;20771;-76
2023/01/11 03:40:41;;;;;;;4.17;3.87;;;7.50;1.00;;;;;;5052820;28;20437;-76
2023/01/11 03:43:10;;;;;;;6.80;4.27;;;7.60;1.00;;;;;;5052579;28;20401;-78
2023/01/11 03:45:58;;;;;;;5.10;3.90;;;7.60;1.00;;;;;;5051736;28;20428;-79
2023/01/11 03:48:33;;;;;;;3.00;2.80;;;7.60;1.00;;;;;;5052621;28;20409;-79
2023/01/11 03:51:01;;;;;;;4.80;3.83;;;7.60;1.00;;;;;;5052136;28;20440;-78
2023/01/11 03:53:30;;;;;;;4.60;3.63;;;7.70;1.00;;;;;;5052655;28;20402;-78
2023/01/11 03:55:57;;;;;;;4.03;3.70;;;7.70;1.00;;;;;;5051615;28;20477;-80
2023/01/11 03:58:26;;;;;;;3.47;3.27;;;7.70;1.00;;;;;;5052337;28;20446;-78
2023/01/11 04:00:54;;;;;;;3.90;3.60;;;7.70;1.00;;;;;;5052615;28;20406;-79
2023/01/11 04:03:20;;;;;;;4.13;3.83;;;7.80;1.00;;;;;;5052501;28;20871;-75
2023/01/11 04:05:52;;;;;;;3.70;3.50;;;7.70;1.00;;;;;;5053782;28;20448;-76
2023/01/11 04:08:18;;;;;;;3.20;3.00;;;7.80;1.00;;;;;;5055652;28;20403;-78
2023/01/11 04:10:44;;;;;;;3.07;2.87;;;7.80;1.00;;;;;;5056116;28;20401;-75
2023/01/11 04:13:11;;;;;;;3.63;3.33;;;7.80;1.00;;;;;;5056021;28;20408;-74
2023/01/11 04:15:36;;;;;;;3.67;3.37;;;7.80;1.00;;;;;;5055136;28;20187;-78
2023/01/11 04:18:04;;;;;;;2.93;2.73;;;7.80;1.00;;;;;;5056135;28;20966;-82
2023/01/11 04:20:35;;;;;;;3.30;3.07;;;7.80;1.00;;;;;;5054645;28;20217;-74
2023/01/11 04:23:02;;;;;;;3.43;3.10;;;7.80;1.00;;;;;;5054724;28;20409;-81
2023/01/11 04:25:28;;;;;;;3.00;2.80;;;7.80;1.00;;;;;;5055087;28;20924;-75
2023/01/11 04:27:54;;;;;;;3.10;2.90;;;7.80;1.00;;;;;;5054023;28;20452;-75
2023/01/11 04:30:20;;;;;;;2.73;2.53;;;7.80;1.00;;;;;;5055752;28;20401;-79
2023/01/11 04:32:45;;;;;;;2.90;2.70;;;7.90;1.00;;;;;;5055771;28;20386;-80
2023/01/11 04:35:11;;;;;;;3.27;3.07;;;7.90;1.00;;;;;;5054711;28;20417;-78
2023/01/11 04:37:37;;;;;;;3.10;2.90;;;7.90;1.00;;;;;;5054465;28;20213;-79
2023/01/11 04:40:03;;;;;;;3.00;2.90;;;7.90;1.00;;;;;;5055654;28;20751;-79
2023/01/11 04:42:29;;;;;;;2.60;2.40;;;7.90;1.00;;;;;;5054416;28;20167;-78
2023/01/11 04:44:54;;;;;;;3.13;2.83;;;7.90;1.00;;;;;;5054633;28;20429;-80
2023/01/11 04:47:22;;;;;;;2.90;2.50;;;8.00;1.00;;;;;;5055006;28;20155;-82
2023/01/11 04:49:48;;;;;;;3.17;2.87;;;8.00;1.00;;;;;;5055343;28;20643;-77
2023/01/11 04:52:15;;;;;;;2.97;2.77;;;7.90;1.00;;;;;;5055389;28;20408;-80
2023/01/11 04:54:41;;;;;;;2.33;2.23;;;8.00;1.00;;;;;;5054346;28;20417;-80
2023/01/11 04:57:11;;;;;;;3.60;2.97;;;8.00;1.00;;;;;;5055115;28;20421;-79
2023/01/11 04:59:37;;;;;;;4.03;2.60;;;8.10;1.00;;;;;;5055205;28;20473;-80
2023/01/11 05:02:02;;;;;;;5.10;2.50;;;8.10;1.00;;;;;;5055265;28;20444;-75
2023/01/11 05:04:28;;;;;;;3.57;3.37;;;8.10;1.00;;;;;;5054124;28;20183;-75
2023/01/11 05:06:57;;;;;;;2.67;2.57;;;8.10;1.00;;;;;;5054487;28;20178;-76
2023/01/11 05:09:22;;;;;;;2.90;2.60;;;8.20;1.00;;;;;;5054022;28;20186;-78
2023/01/11 05:11:48;;;;;;;2.53;2.33;;;8.20;1.00;;;;;;5054925;28;20414;-76
2023/01/11 05:14:15;;;;;;;2.93;2.73;;;8.20;1.00;;;;;;5054618;28;20187;-76
2023/01/11 05:16:41;;;;;;;3.60;3.30;;;8.20;1.00;;;;;;5053275;28;20231;-76
2023/01/11 05:19:09;;;;;;;4.67;2.83;;;8.20;1.00;;;;;;5054681;28;20453;-80
2023/01/11 05:21:40;;;;;;;3.43;2.87;;;8.20;1.00;;;;;;5054641;28;20405;-78
2023/01/11 05:24:09;;;;;;;2.70;2.50;;;8.30;1.00;;;;;;5054252;28;20394;-80
2023/01/11 05:26:37;;;;;;;2.73;2.53;;;8.30;1.00;;;;;;5054053;28;20751;-80
2023/01/11 05:29:06;;;;;;;4.40;3.30;;;8.30;1.00;;;;;;5054584;28;20406;-79
2023/01/11 05:31:33;;;;;;;2.83;2.63;;;8.30;1.00;;;;;;5054766;28;20405;-76
2023/01/11 05:34:00;;;;;;;5.17;2.60;;;8.30;1.00;;;;;;5054513;28;20500;-78
2023/01/11 05:36:26;;;;;;;2.40;2.20;;;8.40;1.00;;;;;;5053589;28;20509;-80
2023/01/11 05:38:54;;;;;;;3.47;2.80;;;8.40;1.00;;;;;;5054336;28;20453;-79
2023/01/11 05:41:22;;;;;;;2.60;2.40;;;8.40;1.00;;;;;;5053766;28;20428;-75
2023/01/11 05:46:35;;;;;;;2.90;2.70;;;8.50;1.00;;;;;;5053958;28;20393;-79
2023/01/11 05:49:01;;;;;;;2.73;2.53;;;8.40;1.00;;;;;;5052870;28;20913;-77
2023/01/11 05:51:31;;;;;;;2.67;2.47;;;8.50;1.00;;;;;;5053003;28;20924;-79
2023/01/11 05:53:58;;;;;;;2.80;2.60;;;8.50;1.00;;;;;;5054120;28;20936;-75
2023/01/11 05:56:24;;;;;;;2.47;2.33;;;8.50;1.00;;;;;;5053152;28;20397;-82
2023/01/11 05:58:50;;;;;;;2.80;2.60;;;8.50;1.00;;;;;;5054072;28;21021;-84
2023/01/11 06:01:18;;;;;;;3.27;2.60;;;8.60;1.00;;;;;;5053345;28;20402;-75
2023/01/11 06:03:45;;;;;;;3.00;2.80;;;8.60;1.00;;;;;;5053964;28;20397;-75
2023/01/11 06:06:11;;;;;;;3.27;2.97;;;8.60;1.00;;;;;;5053110;28;20415;-75
2023/01/11 06:08:37;;;;;;;2.90;2.70;;;8.60;1.00;;;;;;5053947;28;20516;-74
2023/01/11 06:11:03;;;;;;;3.53;3.10;;;8.70;1.00;;;;;;5052342;28;20536;-75
2023/01/11 06:13:29;;;;;;;3.50;3.20;;;8.60;1.00;;;;;;5053848;28;20645;-74
2023/01/11 06:16:01;;;;;;;3.73;3.43;;;8.70;1.00;;;;;;5052918;28;20206;-78
2023/01/11 06:18:33;;;;;;;2.97;2.77;;;8.70;1.00;;;;;;5053595;28;20488;-78
2023/01/11 06:21:00;;;;;;;3.53;3.30;;;8.70;1.00;;;;;;5052885;28;20402;-75
2023/01/11 06:23:27;;;;;;;3.70;3.50;;;8.70;1.00;;;;;;5053485;28;20395;-75
2023/01/11 06:25:54;;;;;;;3.00;2.80;;;8.70;1.00;;;;;;5052502;28;20441;-79
2023/01/11 06:28:20;;;;;;;3.77;3.50;;;8.70;1.00;;;;;;5053385;28;20434;-74
2023/01/11 06:30:56;;;;;;;3.90;3.60;;;8.70;1.00;;;;;;5053515;28;20410;-74
2023/01/11 06:33:23;;;;;;;3.20;2.97;;;8.70;1.00;;;;;;5053461;28;20405;-77
2023/01/11 06:35:49;;;;;;;4.30;3.03;;;8.70;1.00;;;;;;5052361;28;20862;-77
2023/01/11 06:38:16;;;;;;;3.33;3.03;;;8.70;1.00;;;;;;5053300;28;20833;-76
2023/01/11 06:40:51;;;;;;;3.43;3.13;;;8.70;1.00;;;;;;5052866;28;20398;-74
2023/01/11 06:43:16;;;;;;;3.03;2.83;;;8.70;1.00;;;;;;5053244;28;20672;-77
2023/01/11 06:45:42;;;;;;;3.67;3.37;;;8.80;1.00;;;;;;5052295;28;20516;-75
2023/01/11 06:48:08;;;;;;;3.40;2.90;;;8.70;1.00;;;;;;5053286;28;20175;-74
2023/01/11 06:50:34;;;;;;;3.33;3.03;;;8.80;1.00;;;;;;5053218;28;20178;-78
2023/01/11 06:53:02;;;;;;;3.07;2.87;;;8.80;1.00;;;;;;5053210;28;20254;-74
2023/01/11 06:55:29;;;;;;;2.63;2.43;;;8.80;1.00;;;;;;5052407;28;20183;-75
2023/01/11 06:57:55;;;;;;;3.57;3.23;;;8.80;1.00;;;;;;5052816;28;20939;-75
2023/01/11 07:00:21;;;;;;;2.70;2.43;;;8.80;1.00;;;;;;5052509;28;20469;-74
2023/01/11 07:02:48;;;;;;;3.60;3.30;;;8.90;1.00;;;;;;5053163;28;20417;-78
2023/01/11 07:05:15;;;;;;;3.03;2.83;;;8.90;1.00;;;;;;5052208;28;20425;-78
2023/01/11 07:07:41;;;;;;;3.10;2.90;;;8.90;1.00;;;;;;5052865;28;20409;-78
2023/01/11 07:10:11;;;;;;;3.23;3.03;;;8.90;1.00;;;;;;5051775;28;20776;-74
2023/01/11 07:12:37;;;;;;;2.90;2.70;;;8.90;1.00;;;;;;5052977;28;20428;-75
2023/01/11 07:15:04;;;;;;;2.87;2.60;;;8.90;1.00;;;;;;5050891;28;20434;-75
2023/01/11 07:17:30;;;;;;;3.00;2.80;;;8.90;1.00;;;;;;5052249;28;20759;-76
2023/01/11 07:19:55;;;;;;;2.77;2.57;;;8.90;1.00;;;;;;5052707;28;20464;-75
2023/01/11 07:22:21;;;;;;;2.47;2.27;;;9.00;1.00;;;;;;5052826;28;20164;-74
2023/01/11 07:24:48;;;;;;;3.10;2.77;;;9.00;1.00;;;;;;5050948;28;20277;-78
2023/01/11 07:27:13;;;;;;;2.70;2.50;;;9.00;1.00;;;;;;5052856;28;20163;-77
2023/01/11 07:29:39;;;;;;;2.40;2.30;;;9.00;1.00;;;;;;5052728;28;20896;-77
2023/01/11 07:32:05;;;;;;;2.47;2.30;;;9.00;1.00;;;;;;5052776;28;20173;-77
2023/01/11 07:34:31;;;;;;;2.73;2.53;;;9.10;1.00;;;;;;5052026;28;20185;-75
2023/01/11 07:36:57;;;;;;;2.77;2.57;;;9.00;1.00;;;;;;5052318;28;20456;-75
2023/01/11 07:39:22;;;;;;;3.40;2.40;;;9.00;1.00;;;;;;5054257;28;20207;-74
2023/01/11 07:44:32;;;;;;;2.87;2.67;;;9.00;1.00;;;;;;5055898;28;20193;-73
2023/01/11 07:46:58;;;;;;;2.90;2.63;;;9.10;1.00;;;;;;5056627;28;20481;-78
2023/01/11 07:49:23;;;;;;;3.17;2.97;;;9.00;1.00;;;;;;5056679;28;20532;-78
2023/01/11 07:51:50;;;;;;;5.30;3.10;;;9.00;1.00;;;;;;5056502;28;20172;-78
2023/01/11 07:54:17;;;;;;;3.97;3.67;;;9.00;1.00;;;;;;5055931;28;20185;-78
2023/01/11 07:56:42;;;;;;;3.50;2.80;;;9.10;1.00;;;;;;5055952;28;20414;-74
2023/01/11 07:59:09;;;;;;;3.73;3.40;;;9.10;1.00;;;;;;5056305;28;20449;-75
2023/01/11 08:01:34;;;;;;;3.50;3.20;;;9.10;1.00;;;;;;5056426;28;20629;-75
2023/01/11 08:04:00;;;;;;;3.40;2.90;;;9.10;1.00;;;;;;5056108;28;20404;-79
2023/01/11 08:06:26;;;;;;;3.70;3.40;;;9.10;1.00;;;;;;5055710;28;20167;-75
2023/01/11 08:08:52;;;;;;;5.40;2.90;;;9.10;1.00;;;;;;5056283;28;20566;-76
2023/01/11 08:16:46;;;;;;;3.33;3.03;;;9.20;1.00;;;;;;5056152;28;20443;-74
2023/01/11 08:19:11;;;;;;;4.27;3.90;;;9.10;1.00;;;;;;5055919;28;20443;-74
2023/01/11 08:21:37;;;;;;;3.43;3.17;;;9.20;1.00;;;;;;5056020;28;20179;-77
2023/01/11 08:24:03;;;;;;;4.07;3.57;;;9.20;1.00;;;;;;5055662;28;20169;-76
2023/01/11 08:26:29;;;;;;;6.40;4.00;;;9.20;1.00;;;;;;5055244;28;20178;-75
2023/01/11 08:28:55;;;;;;;4.50;4.03;;;9.20;1.00;;;;;;5055892;28;20732;-76
2023/01/11 08:31:21;;;;;;;5.23;4.73;;;9.20;1.00;;;;;;5055261;28;20186;-78
2023/01/11 08:33:48;;;;;;;6.23;4.67;;;9.30;1.00;;;;;;5055678;28;20949;-75
2023/01/11 08:36:13;;;;;;;10.50;4.50;;;9.30;1.00;;;;;;5054937;28;20523;-76
2023/01/11 08:38:39;;;;;;;11.10;4.60;;;9.40;1.00;;;;;;5055517;28;20518;-76
2023/01/11 08:41:12;;;;;;;11.23;4.80;;;9.40;1.00;;;;;;5055626;28;20564;-75
2023/01/11 08:43:41;;;;;;;8.30;4.23;;;9.40;1.00;;;;;;5055589;28;20211;-76
2023/01/11 08:46:08;;;;;;;5.87;5.30;;;9.40;1.00;;;;;;5054841;28;20416;-77
2023/01/11 08:48:34;;;;;;;7.20;4.07;;;9.40;1.00;;;;;;5055057;28;20404;-76
2023/01/11 08:51:00;;;;;;;4.53;4.10;;;9.50;1.00;;;;;;5053590;28;20492;-76
2023/01/11 08:53:26;;;;;;;7.93;5.10;;;9.50;1.00;;;;;;5055449;28;20488;-77
2023/01/11 08:55:53;;;;;;;4.90;4.13;;;9.50;1.00;;;;;;5054649;28;20200;-75
2023/01/11 08:58:19;;;;;;;7.17;5.03;;;9.60;1.00;;;;;;5055159;28;20805;-75
2023/01/11 09:00:45;;;;;;;5.27;4.00;;;9.60;1.00;;;;;;5055246;28;20487;-77
2023/01/11 09:03:12;;;;;;;8.83;3.40;;;9.70;1.00;;;;;;5055183;28;20484;-77
2023/01/11 09:05:39;;;;;;;6.53;5.13;;;9.70;1.00;;;;;;5054107;28;20919;-76
2023/01/11 09:08:06;;;;;;;9.70;3.30;;;9.70;1.00;;;;;;5054831;28;20428;-77
2023/01/11 09:10:32;;;;;;;6.00;3.77;;;9.70;1.00;;;;;;5054961;28;20388;-75
2023/01/11 09:12:58;;;;;;;7.00;3.30;;;9.60;1.00;;;;;;5053741;28;20417;-74
2023/01/11 09:15:24;;;;;;;9.03;3.20;;;9.70;1.00;;;;;;5054400;28;20387;-74
2023/01/11 09:17:51;;;;;;;8.70;3.20;;;9.70;1.00;;;;;;5053611;28;20875;-74
2023/01/11 09:20:18;;;;;;;3.10;2.90;;;9.60;1.00;;;;;;5053139;28;20460;-76
2023/01/11 09:22:51;;;;;;;11.37;3.30;;;9.60;1.00;;;;;;5054270;28;20396;-75
2023/01/11 09:25:18;;;;;;;5.93;3.20;;;9.70;1.00;;;;;;5053006;28;20435;-76
2023/01/11 09:27:46;;;;;;;12.50;2.80;;;9.70;1.00;;;;;;5054558;28;20835;-74
2023/01/11 09:30:14;;;;;;;5.97;3.23;;;9.80;1.00;;;;;;5054672;28;20437;-75
2023/01/11 09:32:40;;;;;;;5.30;2.30;;;9.70;1.00;;;;;;5054664;28;20410;-74
2023/01/11 09:35:06;;;;;;;5.20;3.40;;;9.70;1.00;;;;;;5053802;28;20542;-76
2023/01/11 09:37:32;;;;;;;7.77;3.30;;;9.60;1.00;;;;;;5054445;28;20413;-75
2023/01/11 09:39:58;;;;;;;8.70;2.87;;;9.60;1.00;;;;;;5053776;28;20463;-76
2023/01/11 09:42:38;;;;;;;3.97;2.80;;;9.60;1.00;;;;;;5054529;28;20156;-76
2023/01/11 09:45:24;;;;;;;17.27;3.80;;;9.60;1.00;;;;;;5053629;28;20424;-75
2023/01/11 09:48:02;;;;;;;8.37;3.20;;;9.60;1.00;;;;;;5054490;28;20404;-75
2023/01/11 09:50:33;;;;;;;10.83;2.70;;;9.60;1.00;;;;;;5054389;28;20515;-74
2023/01/11 09:53:06;;;;;;;5.60;2.87;;;9.60;1.00;;;;;;5054177;28;20460;-75
2023/01/11 09:56:00;;;;;;;15.30;3.43;;;9.60;1.00;;;;;;5053520;28;20423;-73
2023/01/11 09:58:55;;;;;;;11.23;3.47;;;9.70;1.00;;;;;;5053281;28;20452;-75
2023/01/11 10:01:37;;;;;;;9.90;3.33;;;9.80;1.00;;;;;;5052894;28;20422;-72
2023/01/11 10:04:05;;;;;;;7.80;3.60;;;9.70;1.00;;;;;;5053755;28;20912;-76
2023/01/11 10:06:49;;;;;;;7.37;3.63;;;9.70;1.00;;;;;;5053531;28;20400;-74
2023/01/11 10:09:38;;;;;;;15.47;3.63;;;9.70;1.00;;;;;;5053925;28;20401;-76
2023/01/11 10:12:33;;;;;;;15.73;3.60;;;9.70;1.00;;;;;;5053935;28;20420;-75
2023/01/11 10:15:26;;;;;;;13.47;2.73;;;9.70;1.00;;;;;;5052076;28;20418;-75
2023/01/11 10:18:12;;;;;;;18.80;3.50;;;9.60;1.00;;;;;;5053811;28;20412;-75
2023/01/11 10:20:49;;;;;;;11.77;2.53;;;9.50;1.00;;;;;;5053702;28;20496;-75
2023/01/11 10:23:49;;;;;;;9.57;3.23;;;9.60;1.00;;;;;;5053632;28;20487;-76
2023/01/11 10:26:34;;;;;;;4.10;2.30;;;9.70;1.00;;;;;;5052985;28;20375;-75
2023/01/11 10:29:38;;;;;;;9.50;3.07;;;9.80;1.00;;;;;;5053528;28;20468;-75
2023/01/11 10:32:48;;;;;;;4.07;2.80;;;9.80;99.90;;;;;;5053564;28;20408;-75
2023/01/11 10:35:57;;;;;;;13.07;3.43;;;9.80;99.90;;;;;;5052054;28;20932;-75
2023/01/11 10:41:41;;;;;;;14.23;2.80;;;9.80;99.90;;;;;;5053395;28;20436;-75
2023/01/11 10:44:09;;;;;;;9.13;2.43;;;9.80;99.90;;;;;;5052939;28;20996;-75
2023/01/11 10:46:56;;;;;;;10.70;3.43;;;9.80;99.90;;;;;;5052922;28;20409;-73
2023/01/11 10:49:47;;;;;;;11.53;2.70;;;9.90;99.90;;;;;;5053193;28;20507;-74
2023/01/11 10:52:40;;;;;;;5.43;3.40;;;9.90;99.90;;;;;;5052129;28;20505;-74
2023/01/11 10:55:26;;;;;;;11.23;3.27;;;9.90;99.90;;;;;;5051898;28;20435;-73
2023/01/11 10:58:05;;;;;;;6.17;2.80;;;9.80;99.90;;;;;;5053330;28;20404;-73
2023/01/11 11:01:02;;;;;;;10.17;3.50;;;9.80;99.90;;;;;;5053082;28;20464;-73
2023/01/11 11:03:49;;;;;;;16.27;5.00;;;9.80;99.90;;;;;;5052935;28;20506;-74
2023/01/11 11:06:32;;;;;;;6.00;2.40;;;9.80;99.90;;;;;;5052323;28;20383;-76
2023/01/11 11:09:22;;;;;;;13.03;3.27;;;9.80;99.90;;;;;;5052895;28;20416;-74
2023/01/11 11:11:57;;;;;;;8.43;3.77;;;9.80;99.90;;;;;;5052902;28;20419;-74
2023/01/11 11:14:28;;;;;;;12.87;4.23;;;9.80;99.90;;;;;;5049688;28;20952;-75
2023/01/11 11:17:14;;;;;;;11.60;3.13;;;9.70;99.90;;;;;;5052990;28;20842;-74
2023/01/11 11:19:40;;;;;;;8.40;2.57;;;9.70;99.90;;;;;;5052668;28;20466;-75
2023/01/11 11:22:08;;;;;;;15.53;3.83;;;9.70;99.90;;;;;;5052862;28;20935;-75
2023/01/11 11:24:41;;;;;;;8.50;3.20;;;9.70;99.90;;;;;;5052140;28;20651;-75
2023/01/11 11:27:43;;;;;;;6.33;3.67;;;9.70;99.90;;;;;;5052818;28;20790;-75
2023/01/11 11:30:11;;;;;;;8.80;3.07;;;9.60;99.90;;;;;;5052839;28;20939;-75
2023/01/11 11:32:41;;;;;;;7.53;2.97;;;9.50;99.90;;;;;;5052417;28;20432;-75
2023/01/11 11:35:29;;;;;;;7.07;2.13;;;9.50;99.90;;;;;;5051875;28;20402;-74
2023/01/11 11:37:55;;;;;;;10.57;3.30;;;9.40;99.90;;;;;;5052735;28;20423;-75
2023/01/11 11:40:30;;;;;;;7.73;3.07;;;9.40;99.90;;;;;;5052634;28;20456;-74
2023/01/11 11:43:15;;;;;;;14.43;3.50;;;9.30;99.90;;;;;;5052706;28;20399;-74
2023/01/11 11:45:58;;;;;;;5.93;2.10;;;9.40;99.90;;;;;;5051964;28;20449;-74
2023/01/11 11:48:26;;;;;;;20.13;3.33;;;9.30;99.90;;;;;;5052607;28;20405;-75
2023/01/11 11:50:54;;;;;;;3.90;2.80;;;9.30;99.90;;;;;;5052593;28;20437;-74
2023/01/11 11:53:37;;;;;;;12.23;2.87;;;9.40;99.90;;;;;;5052083;28;20431;-74
2023/01/11 11:56:15;;;;;;;6.73;3.00;;;9.40;99.90;;;;;;5051781;28;20503;-74
2023/01/11 11:58:42;;;;;;;6.13;3.47;;;9.40;99.90;;;;;;5052513;28;20511;-75
2023/01/11 12:01:29;;;;;;;7.70;3.13;;;9.40;99.90;;;;;;5052605;28;20389;-74
2023/01/11 12:04:20;;;;;;;7.33;2.87;;;9.40;99.90;;;;;;5052461;28;20483;-74
2023/01/11 12:07:03;;;;;;;11.97;2.73;;;9.50;99.90;;;;;;5052516;28;20457;-74
2023/01/11 12:09:31;;;;;;;13.23;4.07;;;9.50;99.90;;;;;;5051164;28;20425;-75
2023/01/11 12:11:58;;;;;;;18.80;3.57;;;9.40;99.90;;;;;;5051922;28;20412;-75
2023/01/11 12:14:29;;;;;;;6.43;2.70;;;9.50;99.90;;;;;;5051632;28;20859;-75
2023/01/11 12:16:57;;;;;;;8.20;3.40;;;9.50;99.90;;;;;;5052408;28;20484;-74
2023/01/11 12:19:40;;;;;;;7.87;3.10;;;9.40;99.90;;;;;;5052403;28;20458;-74
2023/01/11 12:22:24;;;;;;;7.57;2.93;;;9.40;99.90;;;;;;5052102;28;20557;-75
2023/01/11 12:25:24;;;;;;;8.17;3.30;;;9.40;99.90;;;;;;5051086;28;20451;-75
2023/01/11 12:28:14;;;;;;;7.70;3.27;;;9.40;99.90;;;;;;5055351;28;20392;-74
2023/01/11 12:30:47;;;;;;;14.73;3.70;;;9.40;99.90;;;;;;5055875;28;20428;-74
2023/01/11 12:33:27;;;;;;;7.30;3.20;;;9.40;99.90;;;;;;5055898;28;20415;-74
2023/01/11 12:36:02;;;;;;;16.73;3.50;;;9.40;99.90;;;;;;5054188;28;20492;-74
2023/01/11 12:39:21;;;;;;;6.07;2.80;;;9.30;99.90;;;;;;5055494;28;20907;-74
2023/01/11 12:42:26;;;;;;;11.70;3.87;;;9.30;99.90;;;;;;5055295;28;20421;-74
2023/01/11 12:45:35;;;;;;;6.03;3.47;;;9.30;99.90;;;;;;5054348;28;20429;-74
2023/01/11 12:48:36;;;;;;;10.33;3.20;;;9.20;99.90;;;;;;5054677;28;20472;-73
2023/01/11 12:51:19;;;;;;;6.37;3.60;;;9.20;99.90;;;;;;5053291;28;20419;-74
2023/01/11 12:53:54;;;;;;;6.57;3.20;;;9.10;99.90;;;;;;5054332;28;20413;-73
2023/01/11 12:56:47;;;;;;;4.20;2.77;;;9.10;99.90;;;;;;5054567;28;20455;-73
2023/01/11 12:59:37;;;;;;;14.20;4.40;;;9.00;99.90;;;;;;5055295;28;20942;-74
2023/01/11 13:02:50;;;;;;;12.73;4.37;;;9.10;99.90;;;;;;5050727;28;20908;-73
2023/01/11 13:05:15;;;;;;;7.77;2.87;;;9.10;99.90;;;;;;5047762;28;20468;-73
2023/01/11 13:07:58;;;;;;;9.17;3.53;;;9.10;99.90;;;;;;5054591;28;20809;-72
2023/01/11 13:10:41;;;;;;;8.63;3.90;;;9.00;99.90;;;;;;5055063;28;20193;-74
2023/01/11 13:13:33;;;;;;;22.60;3.63;;;9.00;99.90;;;;;;5055101;28;20424;-73
2023/01/11 13:16:13;;;;;;;6.07;2.80;;;9.00;99.90;;;;;;5054196;28;20419;-72
2023/01/11 13:19:00;;;;;;;5.77;3.13;;;9.00;99.90;;;;;;5054727;28;20427;-73
2023/01/11 13:21:43;;;;;;;9.90;2.83;;;8.90;99.90;;;;;;5054922;28;20743;-73
2023/01/11 13:24:17;;;;;;;12.73;4.10;;;8.90;99.90;;;;;;5054372;28;20584;-72
2023/01/11 13:26:47;;;;;;;9.47;2.90;;;8.90;99.90;;;;;;5054596;28;20399;-73
2023/01/11 13:29:35;;;;;;;7.10;3.47;;;8.90;99.90;;;;;;5054709;28;20403;-71
2023/01/11 13:32:05;;;;;;;9.97;3.33;;;8.90;99.90;;;;;;5054691;28;20398;-73
2023/01/11 13:34:53;;;;;;;12.00;4.20;;;8.80;99.90;;;;;;5053845;28;20429;-73
2023/01/11 13:37:43;;;;;;;18.30;4.17;;;8.80;99.90;;;;;;5053869;28;20434;-72
2023/01/11 13:40:16;;;;;;;5.30;3.60;;;8.90;99.90;;;;;;5054245;28;20454;-73
2023/01/11 13:42:50;;;;;;;5.77;2.60;;;8.90;99.90;;;;;;5054389;28;20500;-73
2023/01/11 13:45:16;;;;;;;10.27;3.10;;;9.00;99.90;;;;;;5053731;28;20476;-73
2023/01/11 13:47:55;;;;;;;10.00;3.10;;;9.10;99.90;;;;;;5054445;28;20403;-73
2023/01/11 13:50:38;;;;;;;10.10;3.40;;;9.10;99.90;;;;;;5054491;28;20170;-73
2023/01/11 13:53:09;;;;;;;10.07;3.43;;;9.00;99.90;;;;;;5054223;28;20412;-73
2023/01/11 13:55:53;;;;;;;5.83;3.40;;;8.90;99.90;;;;;;5052723;28;20482;-73
2023/01/11 13:58:47;;;;;;;13.33;3.47;;;8.80;99.90;;;;;;5054059;28;20409;-72
2023/01/11 14:01:40;;;;;;;18.10;4.17;;;8.80;99.90;;;;;;5054191;28;20894;-72
2023/01/11 14:04:22;;;;;;;17.70;3.33;;;8.70;99.90;;;;;;5053868;28;20738;-73
2023/01/11 14:06:53;;;;;;;8.33;3.20;;;8.70;99.90;;;;;;5053912;28;20511;-73